Time;durP1;ratioP1;P1;durP2;ratioP2;P2;SDS_P1;SDS_P2;PMS_P1;PMS_P2;Temp;Humidity;BMP_temperature;BMP_pressure;BME280_temperature;BME280_humidity;BME280_pressure;Samples;Min_cycle;Max_cycle;Signal;HPM_P1;HPM_P2
2021/04/19 00:00:30;;;;;;;12.27;10.87;;;11.40;99.90;;;;;;4966363;28;20446;-80
2021/04/19 00:02:56;;;;;;;11.87;10.20;;;11.40;99.90;;;;;;4985580;28;20434;-79
2021/04/19 00:05:22;;;;;;;14.03;10.23;;;11.40;99.90;;;;;;4982065;28;20476;-78
2021/04/19 00:07:48;;;;;;;11.60;10.00;;;11.40;99.90;;;;;;4966436;28;20446;-79
2021/04/19 00:10:20;;;;;;;11.27;10.10;;;11.40;99.90;;;;;;4981938;28;20433;-79
2021/04/19 00:12:47;;;;;;;9.80;8.90;;;11.30;99.90;;;;;;4981642;28;20945;-79
2021/04/19 00:15:18;;;;;;;15.03;10.50;;;11.30;99.90;;;;;;4997920;28;20533;-77
2021/04/19 00:17:44;;;;;;;11.27;9.33;;;11.30;99.90;;;;;;4978831;28;20526;-79
2021/04/19 00:20:12;;;;;;;10.80;9.70;;;11.30;99.90;;;;;;4978815;28;20433;-79
2021/04/19 00:22:38;;;;;;;12.83;10.40;;;11.30;99.90;;;;;;4979388;28;20593;-79
2021/04/19 00:25:05;;;;;;;10.67;9.63;;;11.20;99.90;;;;;;4979132;28;20560;-79
2021/04/19 00:27:32;;;;;;;10.30;9.23;;;11.20;99.90;;;;;;4962871;28;20498;-79
2021/04/19 00:29:58;;;;;;;12.70;9.40;;;11.20;99.90;;;;;;4963059;28;20445;-79
2021/04/19 00:32:24;;;;;;;11.73;9.60;;;11.20;99.90;;;;;;4982260;28;20446;-80
2021/04/19 00:34:51;;;;;;;11.90;10.13;;;11.20;99.90;;;;;;4966657;28;20461;-80
2021/04/19 00:37:17;;;;;;;17.10;10.37;;;11.10;99.90;;;;;;4966952;28;20811;-80
2021/04/19 00:39:43;;;;;;;12.33;9.53;;;11.10;99.90;;;;;;4983999;28;20435;-79
2021/04/19 00:42:13;;;;;;;12.40;10.43;;;11.10;99.90;;;;;;4982316;28;20446;-80
2021/04/19 00:44:39;;;;;;;13.83;10.30;;;11.10;99.90;;;;;;4998065;28;20543;-79
2021/04/19 00:47:05;;;;;;;14.00;9.80;;;11.10;99.90;;;;;;4982804;28;20436;-79
2021/04/19 00:49:32;;;;;;;11.40;9.23;;;11.10;99.90;;;;;;4998329;28;20445;-78
2021/04/19 00:51:58;;;;;;;12.97;9.40;;;11.10;99.90;;;;;;4982322;28;20428;-79
2021/04/19 00:54:24;;;;;;;12.80;9.30;;;11.10;99.90;;;;;;4983520;28;20450;-79
2021/04/19 00:56:51;;;;;;;11.10;9.33;;;11.10;99.90;;;;;;4981866;28;20449;-78
2021/04/19 00:59:18;;;;;;;14.93;9.93;;;11.10;99.90;;;;;;4980892;28;20494;-79
2021/04/19 01:01:45;;;;;;;12.57;9.80;;;11.10;99.90;;;;;;4998053;28;20445;-79
2021/04/19 01:04:11;;;;;;;12.67;9.70;;;11.10;99.90;;;;;;4966084;28;21035;-79
2021/04/19 01:06:38;;;;;;;10.97;9.37;;;11.10;99.90;;;;;;4978223;28;20447;-78
2021/04/19 01:09:06;;;;;;;10.97;8.90;;;11.10;99.90;;;;;;4994666;28;20446;-79
2021/04/19 01:11:33;;;;;;;10.57;8.63;;;11.10;99.90;;;;;;4966153;28;20509;-77
2021/04/19 01:14:00;;;;;;;11.90;9.40;;;11.10;99.90;;;;;;4966036;28;20479;-79
2021/04/19 01:16:29;;;;;;;10.40;9.03;;;11.00;99.90;;;;;;4998211;28;20529;-79
2021/04/19 01:18:57;;;;;;;11.33;9.20;;;11.00;99.90;;;;;;4981317;28;20502;-79
2021/04/19 01:21:23;;;;;;;10.83;8.90;;;11.00;99.90;;;;;;4982231;28;20418;-80
2021/04/19 01:23:50;;;;;;;10.80;9.70;;;11.00;99.90;;;;;;4964628;28;20506;-80
2021/04/19 01:26:18;;;;;;;15.23;10.03;;;10.90;99.90;;;;;;4981544;28;20488;-79
2021/04/19 01:28:45;;;;;;;12.03;8.97;;;10.90;99.90;;;;;;4981387;28;20497;-78
2021/04/19 01:31:14;;;;;;;14.40;9.63;;;10.80;99.90;;;;;;4980619;28;20448;-79
2021/04/19 01:33:43;;;;;;;13.13;10.87;;;10.70;99.90;;;;;;4997126;28;20457;-79
2021/04/19 01:36:10;;;;;;;11.43;10.13;;;10.70;99.90;;;;;;4964754;28;20511;-79
2021/04/19 01:38:39;;;;;;;9.87;8.80;;;10.70;99.90;;;;;;4978249;28;21035;-79
2021/04/19 01:41:05;;;;;;;10.70;8.30;;;10.70;99.90;;;;;;4946460;28;20431;-79
2021/04/19 01:43:31;;;;;;;16.77;9.10;;;10.70;99.90;;;;;;4980946;28;20435;-79
2021/04/19 01:46:06;;;;;;;14.00;9.60;;;10.70;99.90;;;;;;4964876;28;20418;-79
2021/04/19 01:48:33;;;;;;;10.17;8.37;;;10.70;99.90;;;;;;4945347;29;20454;-78
2021/04/19 01:50:59;;;;;;;11.13;8.67;;;10.60;99.90;;;;;;4944965;29;20442;-79
2021/04/19 01:53:28;;;;;;;9.13;7.70;;;10.70;99.90;;;;;;4981372;28;21440;-79
2021/04/19 01:55:54;;;;;;;8.40;7.57;;;10.70;99.90;;;;;;4981198;28;20426;-79
2021/04/19 01:58:26;;;;;;;12.03;7.90;;;10.70;99.90;;;;;;4997314;28;20430;-79
2021/04/19 02:00:59;;;;;;;9.73;7.87;;;10.70;99.90;;;;;;4951936;28;20422;-79
2021/04/19 02:03:39;;;;;;;9.27;8.07;;;10.70;99.90;;;;;;4961406;28;20438;-78
2021/04/19 02:06:23;;;;;;;8.83;7.83;;;10.70;99.90;;;;;;4961566;29;20926;-79
2021/04/19 02:08:57;;;;;;;10.80;7.93;;;10.60;99.90;;;;;;4979919;28;20446;-78
2021/04/19 02:11:29;;;;;;;12.20;8.70;;;10.60;99.90;;;;;;4981673;28;20423;-79
2021/04/19 02:14:09;;;;;;;12.00;8.20;;;10.50;99.90;;;;;;4980258;28;20461;-77
2021/04/19 02:16:51;;;;;;;11.97;8.43;;;10.50;99.90;;;;;;4980677;28;20851;-79
2021/04/19 02:19:39;;;;;;;9.80;8.80;;;10.40;99.90;;;;;;4979230;28;20434;-79
2021/04/19 02:22:23;;;;;;;9.07;8.17;;;10.40;99.90;;;;;;4982789;28;20800;-79
2021/04/19 02:24:58;;;;;;;15.77;9.00;;;10.30;99.90;;;;;;4983066;28;20480;-79
2021/04/19 02:27:35;;;;;;;14.13;9.00;;;10.30;99.90;;;;;;4967652;28;20802;-79
2021/04/19 02:30:08;;;;;;;12.47;8.83;;;10.30;99.90;;;;;;4983532;28;20425;-78
2021/04/19 02:32:40;;;;;;;11.87;8.20;;;10.30;99.90;;;;;;4998748;28;20428;-79
2021/04/19 02:35:14;;;;;;;14.67;8.93;;;10.20;99.90;;;;;;4967653;28;20457;-78
2021/04/19 02:37:56;;;;;;;11.03;8.63;;;10.20;99.90;;;;;;4991113;28;20433;-79
2021/04/19 02:40:27;;;;;;;13.57;9.60;;;10.20;99.90;;;;;;4966824;28;20452;-79
2021/04/19 02:42:55;;;;;;;13.80;10.37;;;10.20;99.90;;;;;;4982380;28;20519;-79
2021/04/19 02:45:23;;;;;;;17.93;10.23;;;10.10;99.90;;;;;;4982080;28;20508;-79
2021/04/19 02:48:02;;;;;;;12.77;9.17;;;10.10;99.90;;;;;;4981726;28;20515;-79
2021/04/19 02:50:39;;;;;;;17.30;11.60;;;10.10;99.90;;;;;;4976737;28;20449;-79
2021/04/19 02:53:06;;;;;;;22.10;11.10;;;10.10;99.90;;;;;;4945898;28;20437;-79
2021/04/19 02:55:34;;;;;;;15.27;10.80;;;10.10;99.90;;;;;;4997907;28;20492;-79
2021/04/19 02:58:06;;;;;;;18.70;11.80;;;10.10;99.90;;;;;;4997373;28;21190;-78
2021/04/19 03:00:43;;;;;;;14.73;10.43;;;10.00;99.90;;;;;;4980352;28;20492;-79
2021/04/19 03:03:17;;;;;;;15.53;11.40;;;10.00;99.90;;;;;;4994638;28;20791;-78
2021/04/19 03:05:45;;;;;;;16.33;12.60;;;10.00;99.90;;;;;;4960741;28;20544;-79
2021/04/19 03:08:17;;;;;;;19.50;11.70;;;10.00;99.90;;;;;;4977093;28;20440;-77
2021/04/19 03:10:57;;;;;;;18.97;12.00;;;9.90;99.90;;;;;;4977975;28;21173;-78
2021/04/19 03:13:25;;;;;;;14.30;11.60;;;9.90;99.90;;;;;;4995798;28;20452;-77
2021/04/19 03:15:56;;;;;;;19.13;12.03;;;9.90;99.90;;;;;;4978093;28;20648;-78
2021/04/19 03:18:26;;;;;;;19.63;12.10;;;9.90;99.90;;;;;;4994336;28;20472;-79
2021/04/19 03:21:19;;;;;;;16.47;11.43;;;9.90;99.90;;;;;;4962238;28;20417;-76
2021/04/19 03:24:09;;;;;;;17.47;12.00;;;9.90;99.90;;;;;;4977007;28;20468;-78
2021/04/19 03:26:55;;;;;;;17.87;12.27;;;9.90;99.90;;;;;;4978644;28;20953;-76
2021/04/19 03:29:26;;;;;;;16.20;11.43;;;9.90;99.90;;;;;;4976707;28;20444;-78
2021/04/19 03:32:12;;;;;;;17.43;12.17;;;9.80;99.90;;;;;;4960806;28;20507;-78
2021/04/19 03:34:45;;;;;;;22.60;11.90;;;9.90;99.90;;;;;;4992759;28;20449;-78
2021/04/19 03:37:27;;;;;;;19.47;13.80;;;9.90;99.90;;;;;;4960805;28;20483;-79
2021/04/19 03:40:19;;;;;;;21.97;13.30;;;9.80;99.90;;;;;;4976804;28;20465;-77
2021/04/19 03:42:48;;;;;;;19.27;12.43;;;9.80;99.90;;;;;;4977391;28;20856;-79
2021/04/19 03:45:21;;;;;;;16.20;12.37;;;9.80;99.90;;;;;;4978543;28;20465;-79
2021/04/19 03:48:14;;;;;;;18.47;12.43;;;9.80;99.90;;;;;;4979838;28;20841;-78
2021/04/19 03:50:55;;;;;;;20.27;12.30;;;9.80;99.90;;;;;;4978609;28;20465;-77
2021/04/19 03:53:25;;;;;;;18.23;12.33;;;9.80;99.90;;;;;;4980286;28;20444;-77
2021/04/19 03:55:53;;;;;;;26.57;13.27;;;9.80;99.90;;;;;;4981310;28;20930;-78
2021/04/19 03:58:23;;;;;;;19.13;11.67;;;9.80;99.90;;;;;;4995892;28;20441;-79
2021/04/19 04:00:52;;;;;;;21.47;12.87;;;9.70;99.90;;;;;;4997778;28;20507;-78
2021/04/19 04:03:28;;;;;;;22.23;13.60;;;9.70;99.90;;;;;;4978437;28;20954;-79
2021/04/19 04:06:27;;;;;;;17.53;12.70;;;9.70;99.90;;;;;;4970640;28;20484;-80
2021/04/19 04:08:57;;;;;;;20.00;13.67;;;9.70;99.90;;;;;;4979442;28;20919;-78
2021/04/19 04:11:26;;;;;;;24.00;14.07;;;9.70;99.90;;;;;;4963356;28;20768;-79
2021/04/19 04:14:05;;;;;;;17.40;13.90;;;9.70;99.90;;;;;;4978611;28;20452;-77
2021/04/19 04:16:33;;;;;;;15.97;13.50;;;9.70;99.90;;;;;;4994470;28;20441;-77
2021/04/19 04:19:05;;;;;;;19.50;13.53;;;9.70;99.90;;;;;;4978496;28;20422;-79
2021/04/19 04:21:38;;;;;;;19.30;13.30;;;9.60;99.90;;;;;;4979230;28;20435;-79
2021/04/19 04:24:15;;;;;;;21.50;14.57;;;9.60;99.90;;;;;;4948188;28;20866;-78
2021/04/19 04:26:42;;;;;;;18.73;14.47;;;9.70;99.90;;;;;;4995236;28;20421;-78
2021/04/19 04:29:08;;;;;;;23.23;14.30;;;9.60;99.90;;;;;;4978509;28;20794;-79
2021/04/19 04:31:41;;;;;;;20.40;13.43;;;9.60;99.90;;;;;;4994484;28;20436;-77
2021/04/19 04:34:13;;;;;;;21.00;14.40;;;9.60;99.90;;;;;;4978573;28;20513;-79
2021/04/19 04:36:40;;;;;;;21.67;15.67;;;9.70;99.90;;;;;;4962571;28;20439;-79
2021/04/19 04:39:11;;;;;;;22.27;14.67;;;9.70;99.90;;;;;;4978956;28;20938;-79
2021/04/19 04:41:47;;;;;;;22.23;14.50;;;9.60;99.90;;;;;;4978312;28;20910;-79
2021/04/19 04:44:24;;;;;;;16.90;13.90;;;9.60;99.90;;;;;;4995941;28;20523;-79
2021/04/19 04:47:19;;;;;;;22.53;14.47;;;9.60;99.90;;;;;;4947494;28;20495;-79
2021/04/19 04:50:07;;;;;;;20.47;14.10;;;9.70;99.90;;;;;;4974013;28;20438;-79
2021/04/19 04:53:12;;;;;;;29.37;17.50;;;9.70;99.90;;;;;;4948724;28;20948;-78
2021/04/19 04:55:39;;;;;;;19.80;13.70;;;9.70;99.90;;;;;;4976804;28;20441;-79
2021/04/19 04:58:07;;;;;;;23.27;15.20;;;9.70;99.90;;;;;;4990033;28;20480;-80
2021/04/19 05:00:37;;;;;;;22.20;14.97;;;9.60;99.90;;;;;;4997683;28;20409;-78
2021/04/19 05:03:04;;;;;;;19.80;12.83;;;9.60;99.90;;;;;;4980475;28;20429;-79
2021/04/19 05:05:32;;;;;;;22.03;15.40;;;9.70;99.90;;;;;;4980137;28;20473;-78
2021/04/19 05:07:59;;;;;;;19.80;14.60;;;9.70;99.90;;;;;;4996463;28;20417;-78
2021/04/19 05:10:26;;;;;;;22.53;15.40;;;9.70;99.90;;;;;;4963578;28;20421;-79
2021/04/19 05:12:52;;;;;;;19.17;14.53;;;9.60;99.90;;;;;;4979981;28;20469;-79
2021/04/19 05:15:18;;;;;;;27.03;15.93;;;9.60;99.90;;;;;;4996418;28;20436;-78
2021/04/19 05:17:45;;;;;;;22.23;15.43;;;9.50;99.90;;;;;;4997118;28;20829;-79
2021/04/19 05:20:14;;;;;;;22.57;15.70;;;9.50;99.90;;;;;;4999362;28;20425;-77
2021/04/19 05:22:43;;;;;;;25.33;16.50;;;9.50;99.90;;;;;;4966991;28;20445;-79
2021/04/19 05:25:10;;;;;;;25.00;16.70;;;9.40;99.90;;;;;;5002376;28;20614;-78
2021/04/19 05:27:39;;;;;;;25.93;15.73;;;9.50;99.90;;;;;;4981009;28;20429;-78
2021/04/19 05:30:06;;;;;;;21.70;15.20;;;9.50;99.90;;;;;;4950592;28;20456;-76
2021/04/19 05:32:32;;;;;;;24.90;15.83;;;9.50;99.90;;;;;;4984379;28;20544;-78
2021/04/19 05:35:00;;;;;;;21.93;15.67;;;9.50;99.90;;;;;;5000908;28;20445;-78
2021/04/19 05:37:27;;;;;;;28.83;16.10;;;9.50;99.90;;;;;;4985024;28;20430;-76
2021/04/19 05:39:53;;;;;;;18.80;14.33;;;9.50;99.90;;;;;;4985559;28;20661;-76
2021/04/19 05:42:20;;;;;;;22.60;15.77;;;9.50;99.90;;;;;;5001036;28;20467;-77
2021/04/19 05:44:46;;;;;;;20.30;15.10;;;9.50;99.90;;;;;;4967430;28;20480;-78
2021/04/19 05:47:13;;;;;;;25.80;16.07;;;9.50;99.90;;;;;;4985773;28;20421;-78
2021/04/19 05:49:41;;;;;;;25.20;15.30;;;9.50;99.90;;;;;;5001123;28;20529;-77
2021/04/19 05:52:08;;;;;;;26.10;15.37;;;9.40;99.90;;;;;;4985601;28;20489;-78
2021/04/19 05:54:38;;;;;;;24.47;16.20;;;9.40;99.90;;;;;;4984769;28;20458;-77
2021/04/19 05:57:29;;;;;;;23.27;15.80;;;9.40;99.90;;;;;;4984638;28;20445;-78
2021/04/19 06:00:15;;;;;;;23.13;16.83;;;9.30;99.90;;;;;;5002363;28;20445;-79
2021/04/19 06:03:05;;;;;;;27.60;19.00;;;9.40;99.90;;;;;;4993483;28;20445;-78
2021/04/19 06:05:40;;;;;;;25.17;19.40;;;9.40;99.90;;;;;;4968467;28;20472;-78
2021/04/19 06:08:15;;;;;;;21.50;17.40;;;9.50;99.90;;;;;;4999696;28;20455;-78
2021/04/19 06:10:56;;;;;;;31.17;20.73;;;9.50;99.90;;;;;;5001115;28;20468;-78
2021/04/19 06:13:35;;;;;;;27.43;15.10;;;9.50;99.90;;;;;;5002733;28;20437;-77
2021/04/19 06:16:02;;;;;;;26.33;16.73;;;9.50;99.90;;;;;;5003037;28;20436;-78
2021/04/19 06:18:32;;;;;;;23.50;16.07;;;9.60;99.90;;;;;;4968359;28;20468;-77
2021/04/19 06:21:01;;;;;;;24.97;17.07;;;9.60;99.90;;;;;;4985317;28;20433;-77
2021/04/19 06:23:28;;;;;;;25.93;16.60;;;9.50;99.90;;;;;;4953285;28;20463;-77
2021/04/19 06:25:54;;;;;;;19.30;15.10;;;9.60;99.90;;;;;;5001219;28;20511;-77
2021/04/19 06:28:24;;;;;;;19.23;15.30;;;9.70;99.90;;;;;;4983705;28;20770;-78
2021/04/19 06:30:51;;;;;;;22.73;15.00;;;9.60;99.90;;;;;;4970014;28;20938;-78
2021/04/19 06:33:20;;;;;;;22.63;15.43;;;9.60;99.90;;;;;;4983889;28;20503;-76
2021/04/19 06:35:47;;;;;;;25.60;15.70;;;9.70;99.90;;;;;;5001402;28;20422;-78
2021/04/19 06:38:14;;;;;;;23.47;15.97;;;9.70;99.90;;;;;;4967654;28;20434;-78
2021/04/19 06:40:42;;;;;;;23.10;16.67;;;9.70;99.90;;;;;;5000605;28;20448;-78
2021/04/19 06:43:09;;;;;;;20.80;16.10;;;9.80;99.90;;;;;;4975389;28;20449;-78
2021/04/19 06:45:37;;;;;;;24.77;16.10;;;9.90;99.90;;;;;;4994965;28;20970;-77
2021/04/19 06:48:05;;;;;;;20.77;15.97;;;9.90;99.90;;;;;;4992917;28;20483;-75
2021/04/19 06:50:32;;;;;;;23.50;16.17;;;9.90;99.90;;;;;;4996587;28;20424;-78
2021/04/19 06:52:59;;;;;;;21.67;16.60;;;10.00;99.90;;;;;;4988797;28;20432;-78
2021/04/19 06:55:25;;;;;;;22.33;16.27;;;9.90;99.90;;;;;;4994015;28;20461;-78
2021/04/19 06:57:53;;;;;;;21.33;14.67;;;9.90;99.90;;;;;;4995315;28;20513;-78
2021/04/19 07:00:24;;;;;;;23.03;17.23;;;9.90;99.90;;;;;;4992375;28;20845;-76
2021/04/19 07:02:52;;;;;;;20.30;16.80;;;10.00;99.90;;;;;;4979046;28;20441;-76
2021/04/19 07:05:25;;;;;;;26.43;18.40;;;10.00;99.90;;;;;;4993740;28;20481;-78
2021/04/19 07:08:18;;;;;;;23.27;14.37;;;10.10;99.90;;;;;;4984116;28;20464;-77
2021/04/19 07:10:54;;;;;;;21.47;16.20;;;10.10;99.90;;;;;;4989425;28;20997;-77
2021/04/19 07:13:20;;;;;;;35.30;22.00;;;10.10;99.90;;;;;;4993333;28;20966;-77
2021/04/19 07:15:47;;;;;;;19.90;16.43;;;10.00;99.90;;;;;;4987531;28;20433;-78
2021/04/19 07:18:13;;;;;;;22.40;16.03;;;10.10;99.90;;;;;;4958646;28;20472;-76
2021/04/19 07:20:40;;;;;;;21.20;15.57;;;9.90;99.90;;;;;;4975463;28;20443;-78
2021/04/19 07:23:06;;;;;;;19.13;15.17;;;9.90;99.90;;;;;;4995917;28;20520;-76
2021/04/19 07:25:33;;;;;;;18.83;15.00;;;9.90;99.90;;;;;;4994953;28;20473;-78
2021/04/19 07:28:00;;;;;;;24.27;15.63;;;9.90;99.90;;;;;;4974777;28;20433;-78
2021/04/19 07:30:26;;;;;;;22.40;16.37;;;10.00;99.90;;;;;;4992737;28;20448;-77
2021/04/19 07:32:53;;;;;;;24.80;16.63;;;10.00;99.90;;;;;;4991322;28;20433;-78
2021/04/19 07:35:29;;;;;;;30.00;17.63;;;10.00;99.90;;;;;;4960856;28;20464;-77
2021/04/19 07:38:03;;;;;;;23.60;17.10;;;10.00;99.90;;;;;;4953656;28;20520;-78
2021/04/19 07:40:40;;;;;;;21.50;16.57;;;10.00;99.90;;;;;;4958932;28;20500;-78
2021/04/19 07:43:18;;;;;;;23.90;17.80;;;10.00;99.90;;;;;;4977126;28;20448;-78
2021/04/19 07:46:07;;;;;;;22.30;16.73;;;10.10;99.90;;;;;;4993285;28;20519;-78
2021/04/19 07:48:35;;;;;;;22.20;16.63;;;10.20;99.90;;;;;;4985861;28;21057;-78
2021/04/19 07:51:21;;;;;;;31.70;18.83;;;10.20;99.90;;;;;;5000594;22;20666;-79
2021/04/19 07:53:47;;;;;;;28.50;16.40;;;10.30;99.90;;;;;;4979008;28;20465;-79
2021/04/19 07:56:26;;;;;;;27.80;18.00;;;10.30;99.90;;;;;;4974941;28;20509;-80
2021/04/19 07:58:55;;;;;;;22.07;17.77;;;10.40;99.90;;;;;;4992348;28;20421;-79
2021/04/19 08:01:21;;;;;;;22.77;17.30;;;10.50;99.90;;;;;;4992526;28;20473;-79
2021/04/19 08:03:47;;;;;;;22.60;17.37;;;10.50;99.90;;;;;;4975940;28;20476;-80
2021/04/19 08:06:21;;;;;;;26.17;16.80;;;10.50;99.90;;;;;;4972822;28;20942;-80
2021/04/19 08:08:49;;;;;;;25.37;17.07;;;10.60;99.90;;;;;;4992100;28;20425;-79
2021/04/19 08:11:26;;;;;;;28.50;17.90;;;10.70;99.90;;;;;;4975675;28;20491;-80
2021/04/19 08:14:04;;;;;;;28.53;18.40;;;10.60;99.90;;;;;;4975858;28;20452;-79
2021/04/19 08:16:31;;;;;;;25.03;19.10;;;10.70;99.90;;;;;;4992460;28;20438;-80
2021/04/19 08:19:03;;;;;;;26.90;19.90;;;10.60;99.90;;;;;;4989018;28;20513;-80
2021/04/19 08:21:31;;;;;;;27.13;19.93;;;10.70;99.90;;;;;;4976264;28;20441;-80
2021/04/19 08:24:14;;;;;;;24.77;17.20;;;10.70;99.90;;;;;;4991792;28;20437;-80
2021/04/19 08:26:58;;;;;;;24.80;18.00;;;10.70;99.90;;;;;;4985684;28;20495;-80
2021/04/19 08:29:40;;;;;;;21.63;18.63;;;10.80;99.90;;;;;;4989763;28;20433;-80
2021/04/19 08:32:08;;;;;;;27.67;18.43;;;10.90;99.90;;;;;;4985372;28;20422;-80
2021/04/19 08:34:35;;;;;;;28.40;19.40;;;10.90;99.90;;;;;;4992255;28;20457;-80
2021/04/19 08:37:04;;;;;;;25.53;20.00;;;10.90;99.90;;;;;;4984266;28;20441;-80
2021/04/19 08:39:37;;;;;;;25.97;20.40;;;10.90;99.90;;;;;;4975282;28;20449;-80
2021/04/19 08:42:06;;;;;;;27.40;21.07;;;10.90;99.90;;;;;;4983894;28;20531;-79
2021/04/19 08:44:34;;;;;;;29.63;22.33;;;10.90;99.90;;;;;;4992090;28;20479;-80
2021/04/19 08:47:01;;;;;;;29.00;22.10;;;11.00;99.90;;;;;;4985082;28;20467;-80
2021/04/19 08:49:30;;;;;;;28.83;23.50;;;11.00;99.90;;;;;;4974199;28;20735;-79
2021/04/19 08:51:57;;;;;;;33.73;24.97;;;11.10;99.90;;;;;;4974472;28;20471;-80
2021/04/19 08:54:23;;;;;;;28.23;24.03;;;11.20;99.90;;;;;;4992978;28;20472;-80
2021/04/19 08:56:50;;;;;;;33.03;23.37;;;11.20;99.90;;;;;;4947404;28;20463;-80
2021/04/19 08:59:17;;;;;;;29.47;24.33;;;11.20;99.90;;;;;;4990232;28;20465;-80
2021/04/19 09:01:45;;;;;;;27.37;21.27;;;11.30;99.90;;;;;;4978472;28;20434;-79
2021/04/19 09:04:11;;;;;;;25.37;22.00;;;11.20;99.90;;;;;;4977712;28;20490;-82
2021/04/19 09:06:47;;;;;;;31.53;23.53;;;11.10;99.90;;;;;;4970698;28;20481;-80
2021/04/19 09:09:15;;;;;;;31.07;23.77;;;11.00;99.90;;;;;;4990347;28;20454;-81
2021/04/19 09:11:44;;;;;;;34.00;25.90;;;11.00;99.90;;;;;;4988149;28;20417;-81
2021/04/19 09:14:12;;;;;;;31.57;25.53;;;11.00;99.90;;;;;;4994464;28;20542;-81
2021/04/19 09:16:41;;;;;;;37.60;28.70;;;10.90;99.90;;;;;;4979020;28;20555;-81
2021/04/19 09:19:08;;;;;;;44.37;32.23;;;10.90;99.90;;;;;;4979230;28;20433;-81
2021/04/19 09:21:39;;;;;;;37.90;28.23;;;10.80;99.90;;;;;;4994637;28;20437;-80
2021/04/19 09:24:11;;;;;;;36.40;29.90;;;10.70;99.90;;;;;;4995719;28;20460;-80
2021/04/19 09:26:56;;;;;;;32.10;23.67;;;10.60;99.90;;;;;;4995565;28;20429;-80
2021/04/19 09:29:25;;;;;;;33.80;25.13;;;10.50;99.90;;;;;;4994151;28;20850;-80
2021/04/19 09:32:05;;;;;;;34.13;26.87;;;10.40;99.90;;;;;;4995589;28;20449;-81
2021/04/19 09:34:37;;;;;;;33.77;27.80;;;10.50;99.90;;;;;;4995316;28;20933;-81
2021/04/19 09:37:04;;;;;;;34.50;26.00;;;10.60;99.90;;;;;;4978495;28;20445;-81
2021/04/19 09:39:58;;;;;;;34.83;26.30;;;10.70;99.90;;;;;;4995367;28;20887;-80
2021/04/19 09:43:02;;;;;;;29.87;25.40;;;10.80;99.90;;;;;;4991230;28;20984;-83
2021/04/19 09:45:44;;;;;;;28.97;25.00;;;10.90;99.90;;;;;;4977315;28;20536;-84
2021/04/19 09:48:37;;;;;;;32.50;24.53;;;11.00;99.90;;;;;;4978575;28;20492;-84
2021/04/19 09:51:12;;;;;;;37.07;26.23;;;11.00;99.90;;;;;;4976782;28;20826;-82
2021/04/19 09:53:40;;;;;;;34.20;25.73;;;11.00;99.90;;;;;;4994296;28;20437;-81
2021/04/19 09:56:09;;;;;;;36.00;28.27;;;11.00;99.90;;;;;;4995349;28;20761;-83
2021/04/19 09:58:41;;;;;;;41.93;27.43;;;11.10;99.90;;;;;;4994906;28;20520;-83
2021/04/19 10:01:08;;;;;;;33.20;26.77;;;11.20;99.90;;;;;;4961344;28;20500;-82
2021/04/19 10:03:34;;;;;;;30.60;25.23;;;11.20;99.90;;;;;;4994732;28;20449;-82
2021/04/19 10:06:03;;;;;;;31.90;26.27;;;11.20;99.90;;;;;;4977315;28;20587;-84
2021/04/19 10:08:42;;;;;;;33.47;25.60;;;11.30;99.90;;;;;;4962267;28;20452;-83
2021/04/19 10:11:13;;;;;;;38.03;27.23;;;11.40;99.90;;;;;;4994160;28;20565;-82
2021/04/19 10:13:39;;;;;;;33.47;25.60;;;11.60;99.90;;;;;;4982762;28;20438;-82
2021/04/19 10:16:13;;;;;;;37.50;29.00;;;11.60;99.90;;;;;;4982284;28;20438;-82
2021/04/19 10:18:41;;;;;;;32.33;27.00;;;11.70;99.90;;;;;;4985975;28;20754;-83
2021/04/19 10:21:09;;;;;;;33.60;26.10;;;11.90;99.90;;;;;;4956870;28;20433;-82
2021/04/19 10:23:38;;;;;;;30.43;26.23;;;12.10;99.90;;;;;;4984055;28;20487;-82
2021/04/19 10:26:05;;;;;;;31.10;26.20;;;12.30;99.90;;;;;;4981669;28;21014;-82
2021/04/19 10:28:43;;;;;;;31.50;25.50;;;12.60;99.90;;;;;;4962521;28;21097;-81
2021/04/19 10:31:15;;;;;;;27.20;23.80;;;12.90;99.90;;;;;;4983727;28;20437;-81
2021/04/19 10:33:43;;;;;;;27.80;24.80;;;13.20;99.90;;;;;;4983057;28;20447;-82
2021/04/19 10:36:11;;;;;;;31.07;23.47;;;13.50;99.90;;;;;;4975670;28;20490;-81
2021/04/19 10:38:41;;;;;;;27.43;24.40;;;13.80;99.90;;;;;;4975511;28;20814;-82
2021/04/19 10:41:09;;;;;;;22.40;19.77;;;14.20;99.90;;;;;;4992157;28;20447;-82
2021/04/19 10:43:38;;;;;;;24.43;21.80;;;14.70;99.90;;;;;;4977448;28;20515;-82
2021/04/19 10:46:20;;;;;;;25.87;22.40;;;14.80;99.90;;;;;;4989344;28;20471;-82
2021/04/19 10:48:49;;;;;;;27.30;22.30;;;14.60;99.90;;;;;;4988831;28;20913;-82
2021/04/19 10:51:26;;;;;;;26.90;24.03;;;14.60;99.90;;;;;;4990612;28;20464;-82
2021/04/19 10:53:59;;;;;;;25.20;22.60;;;14.50;99.90;;;;;;4980970;28;20444;-82
2021/04/19 10:56:26;;;;;;;25.73;22.10;;;14.50;99.90;;;;;;4985784;28;20451;-82
2021/04/19 10:59:09;;;;;;;27.53;23.47;;;14.50;99.90;;;;;;4992724;28;20991;-82
2021/04/19 11:01:39;;;;;;;21.73;19.37;;;15.10;99.90;;;;;;4979872;28;20491;-82
2021/04/19 11:04:07;;;;;;;20.23;18.33;;;15.60;99.90;;;;;;4985603;28;20474;-83
2021/04/19 11:06:38;;;;;;;24.03;21.53;;;15.90;99.90;;;;;;4979912;28;20457;-82
2021/04/19 11:09:10;;;;;;;22.60;20.27;;;16.40;99.90;;;;;;4983241;28;20432;-82
2021/04/19 11:11:39;;;;;;;22.33;20.13;;;16.50;99.90;;;;;;4984834;28;21622;-82
2021/04/19 11:14:24;;;;;;;23.10;20.80;;;16.40;99.90;;;;;;4976670;28;20471;-83
2021/04/19 11:17:11;;;;;;;21.27;19.27;;;16.30;99.90;;;;;;4992282;28;20921;-82
2021/04/19 11:19:44;;;;;;;26.23;22.30;;;15.90;99.90;;;;;;4987388;28;20895;-84
2021/04/19 11:22:36;;;;;;;26.60;23.97;;;15.60;99.90;;;;;;4986177;28;20468;-84
2021/04/19 11:25:26;;;;;;;24.40;22.00;;;15.50;99.90;;;;;;4984117;28;20557;-83
2021/04/19 11:28:22;;;;;;;25.03;22.53;;;15.40;99.90;;;;;;4988386;28;20466;-84
2021/04/19 11:30:53;;;;;;;26.37;23.57;;;15.30;99.90;;;;;;4981075;28;20518;-83
2021/04/19 11:33:25;;;;;;;26.30;23.60;;;15.10;99.90;;;;;;4984928;28;20463;-83
2021/04/19 11:36:01;;;;;;;23.93;21.47;;;15.10;99.90;;;;;;4976189;28;20907;-84
2021/04/19 11:38:28;;;;;;;26.30;23.70;;;15.00;99.90;;;;;;4984983;28;20442;-83
2021/04/19 11:41:05;;;;;;;27.17;24.37;;;14.90;99.90;;;;;;4985250;28;20475;-83
2021/04/19 11:43:33;;;;;;;25.40;22.80;;;14.90;99.90;;;;;;4987798;28;20808;-82
2021/04/19 11:46:02;;;;;;;25.90;23.20;;;14.90;99.90;;;;;;4990314;28;20903;-83
2021/04/19 11:48:30;;;;;;;25.97;23.20;;;14.80;99.90;;;;;;4993141;28;20444;-84
2021/04/19 11:50:57;;;;;;;26.77;23.93;;;14.90;99.90;;;;;;4987574;28;20894;-83
2021/04/19 11:53:29;;;;;;;25.80;23.10;;;14.80;99.90;;;;;;4981374;28;20456;-83
2021/04/19 11:56:00;;;;;;;24.80;22.40;;;14.80;99.90;;;;;;4983101;28;20432;-86
2021/04/19 11:58:27;;;;;;;24.37;21.87;;;14.90;99.90;;;;;;4980879;28;21056;-86
2021/04/19 12:00:55;;;;;;;31.13;24.50;;;15.00;99.90;;;;;;4980089;28;20917;-85
2021/04/19 12:03:24;;;;;;;28.13;25.23;;;15.20;99.90;;;;;;4985720;28;20434;-86
2021/04/19 12:05:54;;;;;;;30.80;25.87;;;15.30;99.90;;;;;;4986541;28;20531;-88
2021/04/19 12:08:20;;;;;;;28.70;25.70;;;15.50;99.90;;;;;;4990176;28;20433;-82
2021/04/19 12:10:46;;;;;;;24.33;21.73;;;15.40;99.90;;;;;;4984250;28;20444;-84
2021/04/19 12:13:15;;;;;;;25.97;23.20;;;15.50;99.90;;;;;;4991602;28;20423;-83
2021/04/19 12:15:42;;;;;;;25.33;22.77;;;15.60;99.90;;;;;;4981412;28;20517;-82
2021/04/19 12:18:11;;;;;;;24.93;22.37;;;15.90;99.90;;;;;;4992163;28;20439;-82
2021/04/19 12:20:38;;;;;;;26.13;21.53;;;16.10;99.90;;;;;;4991673;28;20504;-82
2021/04/19 12:23:07;;;;;;;24.40;22.00;;;16.70;99.90;;;;;;4975649;28;20825;-86
2021/04/19 12:25:34;;;;;;;24.83;22.17;;;17.10;99.90;;;;;;4992341;28;20873;-86
2021/04/19 12:28:03;;;;;;;27.10;24.50;;;17.30;98.90;;;;;;4975471;28;20441;-85
2021/04/19 12:30:32;;;;;;;27.47;24.83;;;17.20;97.30;;;;;;4986241;28;20477;-83
2021/04/19 12:33:00;;;;;;;26.83;24.30;;;16.90;97.50;;;;;;4984035;28;20434;-83
2021/04/19 12:35:28;;;;;;;24.93;22.33;;;16.70;99.90;;;;;;4975716;28;20549;-84
2021/04/19 12:37:54;;;;;;;25.20;22.60;;;16.70;99.90;;;;;;4984068;28;20458;-82
2021/04/19 12:40:22;;;;;;;25.27;22.67;;;16.70;98.60;;;;;;4984116;28;20446;-82
2021/04/19 12:42:50;;;;;;;22.83;20.53;;;16.50;99.30;;;;;;4991189;28;20448;-81
2021/04/19 12:45:21;;;;;;;26.37;23.83;;;16.40;99.90;;;;;;4992171;28;21342;-83
2021/04/19 12:47:47;;;;;;;25.53;22.97;;;16.50;99.90;;;;;;4991252;28;20962;-83
2021/04/19 12:50:13;;;;;;;24.43;21.97;;;16.50;99.70;;;;;;4961427;28;20437;-85
2021/04/19 12:52:39;;;;;;;28.60;24.07;;;16.50;99.90;;;;;;4972876;28;20548;-83